sensor_id;sensor_type;location;lat;lon;timestamp;temperature;humidity
34135;DHT22;20410;55.578;12.968;2024-03-29T00:01:41;6.70;22.00
34135;DHT22;20410;55.578;12.968;2024-03-29T00:04:09;6.70;33.30
34135;DHT22;20410;55.578;12.968;2024-03-29T00:06:34;6.70;34.70
34135;DHT22;20410;55.578;12.968;2024-03-29T00:09:00;6.70;39.00
34135;DHT22;20410;55.578;12.968;2024-03-29T00:11:27;6.70;46.00
34135;DHT22;20410;55.578;12.968;2024-03-29T00:13:53;6.70;54.30
34135;DHT22;20410;55.578;12.968;2024-03-29T00:16:18;6.70;51.30
34135;DHT22;20410;55.578;12.968;2024-03-29T00:18:44;6.70;46.90
34135;DHT22;20410;55.578;12.968;2024-03-29T00:21:10;6.70;60.80
34135;DHT22;20410;55.578;12.968;2024-03-29T00:23:35;6.70;65.50
34135;DHT22;20410;55.578;12.968;2024-03-29T00:26:01;6.80;67.20
34135;DHT22;20410;55.578;12.968;2024-03-29T00:28:26;6.80;67.20
34135;DHT22;20410;55.578;12.968;2024-03-29T00:30:52;6.80;83.10
34135;DHT22;20410;55.578;12.968;2024-03-29T00:33:18;6.90;80.50
34135;DHT22;20410;55.578;12.968;2024-03-29T00:35:43;6.90;80.40
34135;DHT22;20410;55.578;12.968;2024-03-29T00:38:09;6.90;83.70
34135;DHT22;20410;55.578;12.968;2024-03-29T00:40:35;6.90;80.30
34135;DHT22;20410;55.578;12.968;2024-03-29T00:43:01;6.90;88.80
34135;DHT22;20410;55.578;12.968;2024-03-29T00:45:27;6.90;91.90
34135;DHT22;20410;55.578;12.968;2024-03-29T00:47:54;7.00;90.80
34135;DHT22;20410;55.578;12.968;2024-03-29T00:50:19;7.00;88.60
34135;DHT22;20410;55.578;12.968;2024-03-29T00:52:45;7.00;86.60
34135;DHT22;20410;55.578;12.968;2024-03-29T00:55:13;7.10;95.50
34135;DHT22;20410;55.578;12.968;2024-03-29T00:57:39;7.10;71.00
34135;DHT22;20410;55.578;12.968;2024-03-29T01:00:05;7.20;81.10
34135;DHT22;20410;55.578;12.968;2024-03-29T01:02:31;7.20;66.60
34135;DHT22;20410;55.578;12.968;2024-03-29T01:04:56;7.20;29.10
34135;DHT22;20410;55.578;12.968;2024-03-29T01:07:22;7.20;50.90
34135;DHT22;20410;55.578;12.968;2024-03-29T01:09:47;7.30;47.60
34135;DHT22;20410;55.578;12.968;2024-03-29T01:12:13;7.30;49.00
34135;DHT22;20410;55.578;12.968;2024-03-29T01:14:39;7.30;51.40
34135;DHT22;20410;55.578;12.968;2024-03-29T01:17:05;7.30;46.00
34135;DHT22;20410;55.578;12.968;2024-03-29T01:19:32;7.40;49.40
34135;DHT22;20410;55.578;12.968;2024-03-29T01:21:57;7.50;54.70
34135;DHT22;20410;55.578;12.968;2024-03-29T01:24:23;7.50;53.40
34135;DHT22;20410;55.578;12.968;2024-03-29T01:26:49;7.60;53.30
34135;DHT22;20410;55.578;12.968;2024-03-29T01:29:15;7.60;51.70
34135;DHT22;20410;55.578;12.968;2024-03-29T01:31:40;7.50;55.60
34135;DHT22;20410;55.578;12.968;2024-03-29T01:34:06;7.50;57.20
34135;DHT22;20410;55.578;12.968;2024-03-29T01:36:31;7.60;63.60
34135;DHT22;20410;55.578;12.968;2024-03-29T01:38:57;7.60;59.20
34135;DHT22;20410;55.578;12.968;2024-03-29T01:41:24;7.70;53.60
34135;DHT22;20410;55.578;12.968;2024-03-29T01:43:52;7.70;63.20
34135;DHT22;20410;55.578;12.968;2024-03-29T01:46:23;7.70;57.00
34135;DHT22;20410;55.578;12.968;2024-03-29T01:48:52;7.70;44.70
34135;DHT22;20410;55.578;12.968;2024-03-29T01:51:20;7.70;42.50
34135;DHT22;20410;55.578;12.968;2024-03-29T01:53:47;7.70;51.30
34135;DHT22;20410;55.578;12.968;2024-03-29T01:56:15;7.80;58.70
34135;DHT22;20410;55.578;12.968;2024-03-29T01:58:41;7.90;49.90
34135;DHT22;20410;55.578;12.968;2024-03-29T02:01:09;7.90;28.80
34135;DHT22;20410;55.578;12.968;2024-03-29T02:03:35;7.90;26.50
34135;DHT22;20410;55.578;12.968;2024-03-29T02:06:01;7.90;24.80
34135;DHT22;20410;55.578;12.968;2024-03-29T02:08:29;7.90;32.60
34135;DHT22;20410;55.578;12.968;2024-03-29T02:10:54;7.90;28.30
34135;DHT22;20410;55.578;12.968;2024-03-29T02:13:21;7.90;27.30
34135;DHT22;20410;55.578;12.968;2024-03-29T02:15:47;7.90;29.90
34135;DHT22;20410;55.578;12.968;2024-03-29T02:18:12;7.90;24.40
34135;DHT22;20410;55.578;12.968;2024-03-29T02:20:38;7.90;23.10
34135;DHT22;20410;55.578;12.968;2024-03-29T02:23:11;7.90;30.00
34135;DHT22;20410;55.578;12.968;2024-03-29T02:25:37;7.90;26.80
34135;DHT22;20410;55.578;12.968;2024-03-29T02:28:03;7.80;31.80
34135;DHT22;20410;55.578;12.968;2024-03-29T02:30:30;7.80;36.30
34135;DHT22;20410;55.578;12.968;2024-03-29T02:32:56;7.80;44.60
34135;DHT22;20410;55.578;12.968;2024-03-29T02:35:22;7.80;45.30
34135;DHT22;20410;55.578;12.968;2024-03-29T02:37:47;7.80;52.80
34135;DHT22;20410;55.578;12.968;2024-03-29T02:40:13;7.70;52.40
34135;DHT22;20410;55.578;12.968;2024-03-29T02:42:39;7.70;56.10
34135;DHT22;20410;55.578;12.968;2024-03-29T02:45:04;7.70;60.20
34135;DHT22;20410;55.578;12.968;2024-03-29T02:47:30;7.70;64.10
34135;DHT22;20410;55.578;12.968;2024-03-29T02:49:56;7.80;60.30
34135;DHT22;20410;55.578;12.968;2024-03-29T02:52:21;7.80;55.30
34135;DHT22;20410;55.578;12.968;2024-03-29T02:54:47;7.80;47.20
34135;DHT22;20410;55.578;12.968;2024-03-29T02:57:13;7.70;42.70
34135;DHT22;20410;55.578;12.968;2024-03-29T02:59:41;7.70;46.00
34135;DHT22;20410;55.578;12.968;2024-03-29T03:02:07;7.70;33.90
34135;DHT22;20410;55.578;12.968;2024-03-29T03:04:33;7.70;46.20
34135;DHT22;20410;55.578;12.968;2024-03-29T03:06:58;7.70;31.80
34135;DHT22;20410;55.578;12.968;2024-03-29T03:09:44;7.70;46.00
34135;DHT22;20410;55.578;12.968;2024-03-29T03:12:31;7.70;42.40
34135;DHT22;20410;55.578;12.968;2024-03-29T03:15:00;7.60;29.20
34135;DHT22;20410;55.578;12.968;2024-03-29T03:17:28;7.60;39.20
34135;DHT22;20410;55.578;12.968;2024-03-29T03:19:54;7.60;36.20
34135;DHT22;20410;55.578;12.968;2024-03-29T03:22:20;7.50;32.60
34135;DHT22;20410;55.578;12.968;2024-03-29T03:24:45;7.50;44.10
34135;DHT22;20410;55.578;12.968;2024-03-29T03:27:11;7.50;41.00
34135;DHT22;20410;55.578;12.968;2024-03-29T03:29:37;7.50;34.20
34135;DHT22;20410;55.578;12.968;2024-03-29T03:32:03;7.50;37.90
34135;DHT22;20410;55.578;12.968;2024-03-29T03:34:29;7.50;47.00
34135;DHT22;20410;55.578;12.968;2024-03-29T03:36:54;7.50;37.40
34135;DHT22;20410;55.578;12.968;2024-03-29T03:39:20;7.50;39.00
34135;DHT22;20410;55.578;12.968;2024-03-29T03:41:45;7.50;34.30
34135;DHT22;20410;55.578;12.968;2024-03-29T03:44:12;7.50;20.00
34135;DHT22;20410;55.578;12.968;2024-03-29T03:46:37;7.40;28.70
34135;DHT22;20410;55.578;12.968;2024-03-29T03:49:03;7.40;23.50
34135;DHT22;20410;55.578;12.968;2024-03-29T03:51:29;7.40;27.90
34135;DHT22;20410;55.578;12.968;2024-03-29T03:53:54;7.30;25.70
34135;DHT22;20410;55.578;12.968;2024-03-29T03:56:20;7.30;16.70
34135;DHT22;20410;55.578;12.968;2024-03-29T03:58:45;7.30;23.40
34135;DHT22;20410;55.578;12.968;2024-03-29T04:01:11;7.30;19.70
34135;DHT22;20410;55.578;12.968;2024-03-29T04:03:36;7.30;19.90
34135;DHT22;20410;55.578;12.968;2024-03-29T04:06:06;7.30;15.80
34135;DHT22;20410;55.578;12.968;2024-03-29T04:08:32;7.20;15.30
34135;DHT22;20410;55.578;12.968;2024-03-29T04:10:58;7.20;11.90
34135;DHT22;20410;55.578;12.968;2024-03-29T04:13:27;7.20;16.10
34135;DHT22;20410;55.578;12.968;2024-03-29T04:15:52;7.20;13.00
34135;DHT22;20410;55.578;12.968;2024-03-29T04:18:18;7.20;7.10
34135;DHT22;20410;55.578;12.968;2024-03-29T04:20:43;7.10;6.20
34135;DHT22;20410;55.578;12.968;2024-03-29T04:23:09;7.10;13.00
34135;DHT22;20410;55.578;12.968;2024-03-29T04:25:34;7.10;8.60
34135;DHT22;20410;55.578;12.968;2024-03-29T04:28:00;7.10;10.60
34135;DHT22;20410;55.578;12.968;2024-03-29T04:30:25;7.00;8.80
34135;DHT22;20410;55.578;12.968;2024-03-29T04:32:51;7.00;9.20
34135;DHT22;20410;55.578;12.968;2024-03-29T04:35:17;7.00;20.70
34135;DHT22;20410;55.578;12.968;2024-03-29T04:37:42;6.90;21.30
34135;DHT22;20410;55.578;12.968;2024-03-29T04:40:08;6.90;24.20
34135;DHT22;20410;55.578;12.968;2024-03-29T04:42:34;6.90;19.80
34135;DHT22;20410;55.578;12.968;2024-03-29T04:44:59;6.90;24.50
34135;DHT22;20410;55.578;12.968;2024-03-29T04:47:26;6.90;24.40
34135;DHT22;20410;55.578;12.968;2024-03-29T04:49:52;6.80;25.60
34135;DHT22;20410;55.578;12.968;2024-03-29T04:52:17;6.80;23.70
34135;DHT22;20410;55.578;12.968;2024-03-29T04:54:43;6.80;22.90
34135;DHT22;20410;55.578;12.968;2024-03-29T04:57:09;6.80;23.80
34135;DHT22;20410;55.578;12.968;2024-03-29T04:59:35;6.80;30.40
34135;DHT22;20410;55.578;12.968;2024-03-29T05:02:01;6.70;31.20
34135;DHT22;20410;55.578;12.968;2024-03-29T05:04:27;6.70;42.00
34135;DHT22;20410;55.578;12.968;2024-03-29T05:06:59;6.70;36.30
34135;DHT22;20410;55.578;12.968;2024-03-29T05:09:25;6.70;36.70
34135;DHT22;20410;55.578;12.968;2024-03-29T05:11:51;6.70;39.50
34135;DHT22;20410;55.578;12.968;2024-03-29T05:14:18;6.70;34.30
34135;DHT22;20410;55.578;12.968;2024-03-29T05:16:45;6.70;44.40
34135;DHT22;20410;55.578;12.968;2024-03-29T05:19:11;6.70;36.00
34135;DHT22;20410;55.578;12.968;2024-03-29T05:21:37;6.70;33.40
34135;DHT22;20410;55.578;12.968;2024-03-29T05:24:02;6.70;47.60
34135;DHT22;20410;55.578;12.968;2024-03-29T05:26:28;6.70;35.80
34135;DHT22;20410;55.578;12.968;2024-03-29T05:28:53;6.70;42.70
34135;DHT22;20410;55.578;12.968;2024-03-29T05:31:22;6.80;48.40
34135;DHT22;20410;55.578;12.968;2024-03-29T05:33:48;6.80;39.10
34135;DHT22;20410;55.578;12.968;2024-03-29T05:36:14;6.80;42.20
34135;DHT22;20410;55.578;12.968;2024-03-29T05:38:40;6.80;37.20
34135;DHT22;20410;55.578;12.968;2024-03-29T05:41:05;6.90;34.10
34135;DHT22;20410;55.578;12.968;2024-03-29T05:43:31;6.80;21.00
34135;DHT22;20410;55.578;12.968;2024-03-29T05:45:57;6.90;33.50
34135;DHT22;20410;55.578;12.968;2024-03-29T05:48:23;6.90;39.30
34135;DHT22;20410;55.578;12.968;2024-03-29T05:50:49;7.00;39.40
34135;DHT22;20410;55.578;12.968;2024-03-29T05:53:14;7.00;36.30
34135;DHT22;20410;55.578;12.968;2024-03-29T05:55:40;7.10;34.20
34135;DHT22;20410;55.578;12.968;2024-03-29T05:58:05;7.20;30.00
34135;DHT22;20410;55.578;12.968;2024-03-29T06:00:32;7.20;24.60
34135;DHT22;20410;55.578;12.968;2024-03-29T06:03:01;7.30;34.10
34135;DHT22;20410;55.578;12.968;2024-03-29T06:05:30;7.30;19.00
34135;DHT22;20410;55.578;12.968;2024-03-29T06:07:56;7.30;37.50
34135;DHT22;20410;55.578;12.968;2024-03-29T06:10:22;7.40;19.10
34135;DHT22;20410;55.578;12.968;2024-03-29T06:12:48;7.40;21.60
34135;DHT22;20410;55.578;12.968;2024-03-29T06:15:14;7.40;22.90
34135;DHT22;20410;55.578;12.968;2024-03-29T06:17:58;7.50;23.00
34135;DHT22;20410;55.578;12.968;2024-03-29T06:20:24;7.50;16.40
34135;DHT22;20410;55.578;12.968;2024-03-29T06:22:49;7.60;16.20
34135;DHT22;20410;55.578;12.968;2024-03-29T06:25:15;7.60;11.30
34135;DHT22;20410;55.578;12.968;2024-03-29T06:27:42;7.70;18.60
34135;DHT22;20410;55.578;12.968;2024-03-29T06:30:13;7.80;19.10
34135;DHT22;20410;55.578;12.968;2024-03-29T06:32:39;7.80;8.70
34135;DHT22;20410;55.578;12.968;2024-03-29T06:35:05;7.80;15.60
34135;DHT22;20410;55.578;12.968;2024-03-29T06:37:31;7.90;16.30
34135;DHT22;20410;55.578;12.968;2024-03-29T06:39:57;8.00;10.90
34135;DHT22;20410;55.578;12.968;2024-03-29T06:42:22;8.10;12.10
34135;DHT22;20410;55.578;12.968;2024-03-29T06:44:48;8.20;6.20
34135;DHT22;20410;55.578;12.968;2024-03-29T06:47:14;8.20;5.90
34135;DHT22;20410;55.578;12.968;2024-03-29T06:49:39;8.30;5.10
34135;DHT22;20410;55.578;12.968;2024-03-29T06:52:05;8.30;5.60
34135;DHT22;20410;55.578;12.968;2024-03-29T06:54:31;8.40;1.00
34135;DHT22;20410;55.578;12.968;2024-03-29T06:56:58;8.40;1.00
34135;DHT22;20410;55.578;12.968;2024-03-29T06:59:24;8.60;3.00
34135;DHT22;20410;55.578;12.968;2024-03-29T07:01:50;8.60;1.00
34135;DHT22;20410;55.578;12.968;2024-03-29T07:04:24;8.70;1.00
34135;DHT22;20410;55.578;12.968;2024-03-29T07:06:51;8.70;1.00
34135;DHT22;20410;55.578;12.968;2024-03-29T07:09:21;8.90;6.30
34135;DHT22;20410;55.578;12.968;2024-03-29T07:11:48;8.90;1.00
34135;DHT22;20410;55.578;12.968;2024-03-29T07:14:15;9.00;1.00
34135;DHT22;20410;55.578;12.968;2024-03-29T07:16:41;9.00;1.00
34135;DHT22;20410;55.578;12.968;2024-03-29T07:19:06;9.10;1.00
34135;DHT22;20410;55.578;12.968;2024-03-29T07:21:32;9.20;1.00
34135;DHT22;20410;55.578;12.968;2024-03-29T07:23:58;9.30;1.00
34135;DHT22;20410;55.578;12.968;2024-03-29T07:26:23;9.30;1.00
34135;DHT22;20410;55.578;12.968;2024-03-29T07:28:49;9.30;1.00
34135;DHT22;20410;55.578;12.968;2024-03-29T07:31:14;9.40;1.00
34135;DHT22;20410;55.578;12.968;2024-03-29T07:33:40;9.30;1.00
34135;DHT22;20410;55.578;12.968;2024-03-29T07:36:06;9.30;1.00
34135;DHT22;20410;55.578;12.968;2024-03-29T07:38:31;9.40;1.00
34135;DHT22;20410;55.578;12.968;2024-03-29T07:40:57;9.50;1.00
34135;DHT22;20410;55.578;12.968;2024-03-29T07:43:23;9.60;1.00
34135;DHT22;20410;55.578;12.968;2024-03-29T07:45:49;9.60;1.00
34135;DHT22;20410;55.578;12.968;2024-03-29T07:48:16;9.80;1.00
34135;DHT22;20410;55.578;12.968;2024-03-29T07:50:46;9.80;1.00
34135;DHT22;20410;55.578;12.968;2024-03-29T07:53:12;9.90;1.00
34135;DHT22;20410;55.578;12.968;2024-03-29T07:55:39;9.90;1.00
34135;DHT22;20410;55.578;12.968;2024-03-29T07:58:05;9.90;1.00
34135;DHT22;20410;55.578;12.968;2024-03-29T08:00:32;10.00;1.00
34135;DHT22;20410;55.578;12.968;2024-03-29T08:02:58;10.10;1.00
34135;DHT22;20410;55.578;12.968;2024-03-29T08:05:24;10.20;1.00
34135;DHT22;20410;55.578;12.968;2024-03-29T08:07:49;10.20;1.00
34135;DHT22;20410;55.578;12.968;2024-03-29T08:10:15;10.30;1.00
34135;DHT22;20410;55.578;12.968;2024-03-29T08:12:41;10.40;1.00
34135;DHT22;20410;55.578;12.968;2024-03-29T08:15:06;10.50;1.00
34135;DHT22;20410;55.578;12.968;2024-03-29T08:17:33;10.50;1.00
34135;DHT22;20410;55.578;12.968;2024-03-29T08:19:59;10.60;1.00
34135;DHT22;20410;55.578;12.968;2024-03-29T08:22:25;10.60;1.00
34135;DHT22;20410;55.578;12.968;2024-03-29T08:24:50;10.80;1.00
34135;DHT22;20410;55.578;12.968;2024-03-29T08:27:16;10.70;1.00
34135;DHT22;20410;55.578;12.968;2024-03-29T08:29:42;10.80;1.00
34135;DHT22;20410;55.578;12.968;2024-03-29T08:32:08;10.80;1.00
34135;DHT22;20410;55.578;12.968;2024-03-29T08:34:36;10.80;1.00
34135;DHT22;20410;55.578;12.968;2024-03-29T08:37:02;10.80;1.00
34135;DHT22;20410;55.578;12.968;2024-03-29T08:39:31;10.80;1.00
34135;DHT22;20410;55.578;12.968;2024-03-29T08:42:00;10.90;1.00
34135;DHT22;20410;55.578;12.968;2024-03-29T08:44:30;10.90;1.00
34135;DHT22;20410;55.578;12.968;2024-03-29T08:46:56;10.80;1.00
34135;DHT22;20410;55.578;12.968;2024-03-29T08:49:24;10.80;1.00
34135;DHT22;20410;55.578;12.968;2024-03-29T08:51:49;11.00;1.00
34135;DHT22;20410;55.578;12.968;2024-03-29T08:54:15;11.00;1.00
34135;DHT22;20410;55.578;12.968;2024-03-29T08:56:41;11.10;1.00
34135;DHT22;20410;55.578;12.968;2024-03-29T08:59:07;11.20;1.00
34135;DHT22;20410;55.578;12.968;2024-03-29T09:01:37;11.20;1.00
34135;DHT22;20410;55.578;12.968;2024-03-29T09:04:03;11.30;1.00
34135;DHT22;20410;55.578;12.968;2024-03-29T09:06:32;11.30;1.00
34135;DHT22;20410;55.578;12.968;2024-03-29T09:08:58;11.30;1.00
34135;DHT22;20410;55.578;12.968;2024-03-29T09:11:24;11.40;1.00
34135;DHT22;20410;55.578;12.968;2024-03-29T09:13:50;11.40;1.00
34135;DHT22;20410;55.578;12.968;2024-03-29T09:16:15;11.50;1.00
34135;DHT22;20410;55.578;12.968;2024-03-29T09:18:41;11.50;1.00
34135;DHT22;20410;55.578;12.968;2024-03-29T09:21:07;11.60;1.00
34135;DHT22;20410;55.578;12.968;2024-03-29T09:23:34;11.70;1.00
34135;DHT22;20410;55.578;12.968;2024-03-29T09:26:00;11.80;1.00
34135;DHT22;20410;55.578;12.968;2024-03-29T09:28:25;11.80;1.00
34135;DHT22;20410;55.578;12.968;2024-03-29T09:30:58;11.70;1.00
34135;DHT22;20410;55.578;12.968;2024-03-29T09:33:24;11.60;1.00
34135;DHT22;20410;55.578;12.968;2024-03-29T09:35:50;11.60;1.00
34135;DHT22;20410;55.578;12.968;2024-03-29T09:38:16;11.50;1.00
34135;DHT22;20410;55.578;12.968;2024-03-29T09:40:41;11.50;1.00
34135;DHT22;20410;55.578;12.968;2024-03-29T09:43:09;11.50;1.00
34135;DHT22;20410;55.578;12.968;2024-03-29T09:45:35;11.50;1.00
34135;DHT22;20410;55.578;12.968;2024-03-29T09:48:03;11.50;1.00
34135;DHT22;20410;55.578;12.968;2024-03-29T09:50:31;11.50;1.00
34135;DHT22;20410;55.578;12.968;2024-03-29T09:52:58;11.40;1.00
34135;DHT22;20410;55.578;12.968;2024-03-29T09:55:24;11.40;1.00
34135;DHT22;20410;55.578;12.968;2024-03-29T09:57:50;11.40;1.00
34135;DHT22;20410;55.578;12.968;2024-03-29T10:00:16;11.40;1.00
34135;DHT22;20410;55.578;12.968;2024-03-29T10:02:43;11.50;1.00
34135;DHT22;20410;55.578;12.968;2024-03-29T10:05:11;11.50;1.00
34135;DHT22;20410;55.578;12.968;2024-03-29T10:07:38;11.60;1.00
34135;DHT22;20410;55.578;12.968;2024-03-29T10:10:05;11.70;1.00
34135;DHT22;20410;55.578;12.968;2024-03-29T10:12:31;11.80;1.00
34135;DHT22;20410;55.578;12.968;2024-03-29T10:14:57;11.70;1.00
34135;DHT22;20410;55.578;12.968;2024-03-29T10:17:34;11.70;1.00
34135;DHT22;20410;55.578;12.968;2024-03-29T10:20:01;11.70;1.00
34135;DHT22;20410;55.578;12.968;2024-03-29T10:22:29;11.80;1.00
34135;DHT22;20410;55.578;12.968;2024-03-29T10:24:57;12.00;1.00
34135;DHT22;20410;55.578;12.968;2024-03-29T10:27:27;12.10;1.00
34135;DHT22;20410;55.578;12.968;2024-03-29T10:29:53;12.00;1.00
34135;DHT22;20410;55.578;12.968;2024-03-29T10:32:19;11.90;1.00
34135;DHT22;20410;55.578;12.968;2024-03-29T10:34:44;12.00;1.00
34135;DHT22;20410;55.578;12.968;2024-03-29T10:37:10;12.10;1.00
34135;DHT22;20410;55.578;12.968;2024-03-29T10:39:42;12.20;1.00
34135;DHT22;20410;55.578;12.968;2024-03-29T10:42:08;12.40;1.00
34135;DHT22;20410;55.578;12.968;2024-03-29T10:44:38;12.50;1.00
34135;DHT22;20410;55.578;12.968;2024-03-29T10:47:06;12.50;1.00
34135;DHT22;20410;55.578;12.968;2024-03-29T10:49:33;12.50;1.00
34135;DHT22;20410;55.578;12.968;2024-03-29T10:52:00;12.70;1.00
34135;DHT22;20410;55.578;12.968;2024-03-29T10:54:28;12.70;1.00
34135;DHT22;20410;55.578;12.968;2024-03-29T10:57:02;12.80;1.00
34135;DHT22;20410;55.578;12.968;2024-03-29T10:59:41;13.00;1.00
34135;DHT22;20410;55.578;12.968;2024-03-29T11:02:22;13.00;1.00
34135;DHT22;20410;55.578;12.968;2024-03-29T11:04:50;13.00;1.00
34135;DHT22;20410;55.578;12.968;2024-03-29T11:07:20;13.00;1.00
34135;DHT22;20410;55.578;12.968;2024-03-29T11:09:53;13.20;1.00
34135;DHT22;20410;55.578;12.968;2024-03-29T11:12:23;13.10;1.00
34135;DHT22;20410;55.578;12.968;2024-03-29T11:14:57;13.00;1.00
34135;DHT22;20410;55.578;12.968;2024-03-29T11:17:25;13.00;1.00
34135;DHT22;20410;55.578;12.968;2024-03-29T11:19:51;12.90;1.00
34135;DHT22;20410;55.578;12.968;2024-03-29T11:22:16;12.80;1.00
34135;DHT22;20410;55.578;12.968;2024-03-29T11:24:43;12.60;1.00
34135;DHT22;20410;55.578;12.968;2024-03-29T11:27:09;12.50;1.00
34135;DHT22;20410;55.578;12.968;2024-03-29T11:29:36;12.50;1.00
34135;DHT22;20410;55.578;12.968;2024-03-29T11:32:06;12.50;1.00
34135;DHT22;20410;55.578;12.968;2024-03-29T11:34:31;12.50;1.00
34135;DHT22;20410;55.578;12.968;2024-03-29T11:37:09;12.50;1.00
34135;DHT22;20410;55.578;12.968;2024-03-29T11:39:34;12.40;1.00
34135;DHT22;20410;55.578;12.968;2024-03-29T11:42:01;12.40;1.00
34135;DHT22;20410;55.578;12.968;2024-03-29T11:44:27;12.40;1.00
34135;DHT22;20410;55.578;12.968;2024-03-29T11:46:57;12.40;1.00
34135;DHT22;20410;55.578;12.968;2024-03-29T11:49:23;12.30;1.00
34135;DHT22;20410;55.578;12.968;2024-03-29T11:51:49;12.30;1.00
34135;DHT22;20410;55.578;12.968;2024-03-29T11:54:15;12.30;1.00
34135;DHT22;20410;55.578;12.968;2024-03-29T11:56:42;12.30;1.00
34135;DHT22;20410;55.578;12.968;2024-03-29T11:59:08;12.30;1.00
34135;DHT22;20410;55.578;12.968;2024-03-29T12:01:35;12.30;1.00
34135;DHT22;20410;55.578;12.968;2024-03-29T12:04:01;12.40;1.00
34135;DHT22;20410;55.578;12.968;2024-03-29T12:06:27;12.60;1.00
34135;DHT22;20410;55.578;12.968;2024-03-29T12:08:52;12.50;1.00
34135;DHT22;20410;55.578;12.968;2024-03-29T12:11:21;12.50;1.00
34135;DHT22;20410;55.578;12.968;2024-03-29T12:13:47;12.40;1.00
34135;DHT22;20410;55.578;12.968;2024-03-29T12:16:12;12.30;1.00
34135;DHT22;20410;55.578;12.968;2024-03-29T12:18:38;12.30;1.00
34135;DHT22;20410;55.578;12.968;2024-03-29T12:21:04;12.20;1.00
34135;DHT22;20410;55.578;12.968;2024-03-29T12:23:29;12.20;1.00
34135;DHT22;20410;55.578;12.968;2024-03-29T12:25:57;12.10;1.00
34135;DHT22;20410;55.578;12.968;2024-03-29T12:28:24;12.10;1.00
34135;DHT22;20410;55.578;12.968;2024-03-29T12:30:50;12.20;1.00
34135;DHT22;20410;55.578;12.968;2024-03-29T12:33:18;12.20;1.00
34135;DHT22;20410;55.578;12.968;2024-03-29T12:35:47;12.10;1.00
34135;DHT22;20410;55.578;12.968;2024-03-29T12:38:16;12.20;1.00
34135;DHT22;20410;55.578;12.968;2024-03-29T12:40:42;12.10;1.00
34135;DHT22;20410;55.578;12.968;2024-03-29T12:43:09;12.10;1.00
34135;DHT22;20410;55.578;12.968;2024-03-29T12:45:35;12.00;1.00
34135;DHT22;20410;55.578;12.968;2024-03-29T12:48:19;11.90;1.00
34135;DHT22;20410;55.578;12.968;2024-03-29T12:50:46;11.90;1.00
34135;DHT22;20410;55.578;12.968;2024-03-29T12:53:13;11.90;1.00
34135;DHT22;20410;55.578;12.968;2024-03-29T12:55:43;11.90;1.00
34135;DHT22;20410;55.578;12.968;2024-03-29T12:58:14;11.70;1.00
34135;DHT22;20410;55.578;12.968;2024-03-29T13:00:41;11.60;1.00
34135;DHT22;20410;55.578;12.968;2024-03-29T13:03:08;11.60;1.00
34135;DHT22;20410;55.578;12.968;2024-03-29T13:05:38;11.50;1.00
34135;DHT22;20410;55.578;12.968;2024-03-29T13:08:08;11.50;1.00
34135;DHT22;20410;55.578;12.968;2024-03-29T13:10:39;11.50;1.00
34135;DHT22;20410;55.578;12.968;2024-03-29T13:13:06;11.50;1.00
34135;DHT22;20410;55.578;12.968;2024-03-29T13:15:34;11.50;1.00
34135;DHT22;20410;55.578;12.968;2024-03-29T13:18:00;11.40;1.00
34135;DHT22;20410;55.578;12.968;2024-03-29T13:20:26;11.30;1.00
34135;DHT22;20410;55.578;12.968;2024-03-29T13:22:51;11.30;1.00
34135;DHT22;20410;55.578;12.968;2024-03-29T13:25:20;11.20;1.00
34135;DHT22;20410;55.578;12.968;2024-03-29T13:27:48;11.10;1.00
34135;DHT22;20410;55.578;12.968;2024-03-29T13:30:14;11.10;1.00
34135;DHT22;20410;55.578;12.968;2024-03-29T13:32:41;11.00;1.00
34135;DHT22;20410;55.578;12.968;2024-03-29T13:35:08;11.00;1.00
34135;DHT22;20410;55.578;12.968;2024-03-29T13:37:45;11.10;1.00
34135;DHT22;20410;55.578;12.968;2024-03-29T13:40:15;11.20;1.00
34135;DHT22;20410;55.578;12.968;2024-03-29T13:42:41;11.20;1.00
34135;DHT22;20410;55.578;12.968;2024-03-29T13:45:08;11.20;1.00
34135;DHT22;20410;55.578;12.968;2024-03-29T13:47:38;11.20;1.00
34135;DHT22;20410;55.578;12.968;2024-03-29T13:50:07;11.30;1.00
34135;DHT22;20410;55.578;12.968;2024-03-29T13:52:34;11.40;1.00
34135;DHT22;20410;55.578;12.968;2024-03-29T13:55:00;11.40;1.00
34135;DHT22;20410;55.578;12.968;2024-03-29T13:57:26;11.50;1.00
34135;DHT22;20410;55.578;12.968;2024-03-29T13:59:52;11.40;1.00
34135;DHT22;20410;55.578;12.968;2024-03-29T14:02:18;11.40;1.00
34135;DHT22;20410;55.578;12.968;2024-03-29T14:04:46;11.40;1.00
34135;DHT22;20410;55.578;12.968;2024-03-29T14:07:13;11.30;1.00
34135;DHT22;20410;55.578;12.968;2024-03-29T14:09:46;11.30;1.00
34135;DHT22;20410;55.578;12.968;2024-03-29T14:12:12;11.30;1.00
34135;DHT22;20410;55.578;12.968;2024-03-29T14:14:39;11.20;1.00
34135;DHT22;20410;55.578;12.968;2024-03-29T14:17:07;11.20;1.00
34135;DHT22;20410;55.578;12.968;2024-03-29T14:19:38;11.20;1.00
34135;DHT22;20410;55.578;12.968;2024-03-29T14:22:04;11.20;1.00
34135;DHT22;20410;55.578;12.968;2024-03-29T14:24:31;11.20;1.00
34135;DHT22;20410;55.578;12.968;2024-03-29T14:27:01;11.10;1.00
34135;DHT22;20410;55.578;12.968;2024-03-29T14:29:26;11.20;1.00
34135;DHT22;20410;55.578;12.968;2024-03-29T14:31:52;11.10;1.00
34135;DHT22;20410;55.578;12.968;2024-03-29T14:34:20;11.00;1.00
34135;DHT22;20410;55.578;12.968;2024-03-29T14:36:46;10.90;1.00
34135;DHT22;20410;55.578;12.968;2024-03-29T14:39:11;10.80;1.00
34135;DHT22;20410;55.578;12.968;2024-03-29T14:41:41;10.90;1.00
34135;DHT22;20410;55.578;12.968;2024-03-29T14:44:07;10.80;1.00
34135;DHT22;20410;55.578;12.968;2024-03-29T14:46:33;10.80;1.00
34135;DHT22;20410;55.578;12.968;2024-03-29T14:49:00;10.90;1.00
34135;DHT22;20410;55.578;12.968;2024-03-29T14:51:26;10.90;1.00
34135;DHT22;20410;55.578;12.968;2024-03-29T14:53:53;10.90;1.00
34135;DHT22;20410;55.578;12.968;2024-03-29T14:56:19;10.90;1.00
34135;DHT22;20410;55.578;12.968;2024-03-29T14:58:44;10.90;1.00
34135;DHT22;20410;55.578;12.968;2024-03-29T15:01:11;10.90;1.00
34135;DHT22;20410;55.578;12.968;2024-03-29T15:03:37;10.90;1.00
34135;DHT22;20410;55.578;12.968;2024-03-29T15:06:03;10.90;1.00
34135;DHT22;20410;55.578;12.968;2024-03-29T15:08:29;10.90;1.00
34135;DHT22;20410;55.578;12.968;2024-03-29T15:11:00;10.90;1.00
34135;DHT22;20410;55.578;12.968;2024-03-29T15:13:26;10.90;1.00
34135;DHT22;20410;55.578;12.968;2024-03-29T15:16:00;10.90;1.00
34135;DHT22;20410;55.578;12.968;2024-03-29T15:18:26;10.80;1.00
34135;DHT22;20410;55.578;12.968;2024-03-29T15:21:00;10.80;1.00
34135;DHT22;20410;55.578;12.968;2024-03-29T15:23:27;10.80;1.00
34135;DHT22;20410;55.578;12.968;2024-03-29T15:26:00;10.80;1.00
34135;DHT22;20410;55.578;12.968;2024-03-29T15:28:26;10.90;1.00
34135;DHT22;20410;55.578;12.968;2024-03-29T15:31:15;10.90;1.00